sensor_id;sensor_type;location;lat;lon;timestamp;P1;durP1;ratioP1;P2;durP2;ratioP2
53271;SDS011;39160;48.580;7.756;2022-12-29T00:01:01;2.53;;;1.30;;
53271;SDS011;39160;48.580;7.756;2022-12-29T00:05:55;1.63;;;1.20;;
53271;SDS011;39160;48.580;7.756;2022-12-29T00:10:47;2.17;;;1.00;;
53271;SDS011;39160;48.580;7.756;2022-12-29T00:15:37;1.70;;;1.45;;
53271;SDS011;39160;48.580;7.756;2022-12-29T00:20:28;3.38;;;1.10;;
53271;SDS011;39160;48.580;7.756;2022-12-29T00:25:38;2.80;;;1.23;;
53271;SDS011;39160;48.580;7.756;2022-12-29T00:30:47;1.83;;;1.00;;
53271;SDS011;39160;48.580;7.756;2022-12-29T00:35:57;3.88;;;1.85;;
53271;SDS011;39160;48.580;7.756;2022-12-29T00:40:50;1.85;;;1.30;;
53271;SDS011;39160;48.580;7.756;2022-12-29T00:45:59;1.60;;;1.10;;
53271;SDS011;39160;48.580;7.756;2022-12-29T00:50:50;3.38;;;1.15;;
53271;SDS011;39160;48.580;7.756;2022-12-29T00:55:46;1.40;;;0.85;;
53271;SDS011;39160;48.580;7.756;2022-12-29T01:00:36;3.28;;;1.33;;
53271;SDS011;39160;48.580;7.756;2022-12-29T01:05:27;1.55;;;0.88;;
53271;SDS011;39160;48.580;7.756;2022-12-29T01:10:17;1.55;;;0.98;;
53271;SDS011;39160;48.580;7.756;2022-12-29T01:15:09;1.63;;;0.80;;
53271;SDS011;39160;48.580;7.756;2022-12-29T01:20:01;3.83;;;0.93;;
53271;SDS011;39160;48.580;7.756;2022-12-29T01:24:53;2.20;;;1.10;;
53271;SDS011;39160;48.580;7.756;2022-12-29T01:29:43;2.58;;;0.90;;
53271;SDS011;39160;48.580;7.756;2022-12-29T01:34:34;3.15;;;1.30;;
53271;SDS011;39160;48.580;7.756;2022-12-29T01:39:24;1.95;;;0.80;;
53271;SDS011;39160;48.580;7.756;2022-12-29T01:49:40;3.00;;;1.23;;
53271;SDS011;39160;48.580;7.756;2022-12-29T01:54:35;1.65;;;0.80;;
53271;SDS011;39160;48.580;7.756;2022-12-29T01:59:37;1.40;;;0.80;;
53271;SDS011;39160;48.580;7.756;2022-12-29T02:04:35;6.00;;;0.85;;
53271;SDS011;39160;48.580;7.756;2022-12-29T02:09:30;2.83;;;0.80;;
53271;SDS011;39160;48.580;7.756;2022-12-29T02:14:21;1.33;;;0.80;;
53271;SDS011;39160;48.580;7.756;2022-12-29T02:24:10;1.30;;;0.80;;
53271;SDS011;39160;48.580;7.756;2022-12-29T02:39:40;0.80;;;0.80;;
53271;SDS011;39160;48.580;7.756;2022-12-29T02:44:40;1.13;;;0.65;;
53271;SDS011;39160;48.580;7.756;2022-12-29T02:49:42;1.48;;;0.70;;
53271;SDS011;39160;48.580;7.756;2022-12-29T02:54:38;1.70;;;0.90;;
53271;SDS011;39160;48.580;7.756;2022-12-29T02:59:31;1.95;;;0.60;;
53271;SDS011;39160;48.580;7.756;2022-12-29T03:04:34;2.67;;;0.95;;
53271;SDS011;39160;48.580;7.756;2022-12-29T03:14:37;1.50;;;0.73;;
53271;SDS011;39160;48.580;7.756;2022-12-29T03:19:59;1.13;;;0.70;;
53271;SDS011;39160;48.580;7.756;2022-12-29T03:24:58;1.38;;;0.95;;
53271;SDS011;39160;48.580;7.756;2022-12-29T03:30:11;1.40;;;1.00;;
53271;SDS011;39160;48.580;7.756;2022-12-29T03:35:03;1.73;;;0.73;;
53271;SDS011;39160;48.580;7.756;2022-12-29T03:39:55;1.35;;;0.77;;
53271;SDS011;39160;48.580;7.756;2022-12-29T03:44:46;1.40;;;0.95;;
53271;SDS011;39160;48.580;7.756;2022-12-29T03:49:37;1.25;;;1.10;;
53271;SDS011;39160;48.580;7.756;2022-12-29T03:54:28;2.22;;;0.80;;
53271;SDS011;39160;48.580;7.756;2022-12-29T03:59:19;2.30;;;1.00;;
53271;SDS011;39160;48.580;7.756;2022-12-29T04:04:10;0.70;;;0.60;;
53271;SDS011;39160;48.580;7.756;2022-12-29T04:09:00;2.40;;;0.90;;
53271;SDS011;39160;48.580;7.756;2022-12-29T04:13:51;2.78;;;0.90;;
53271;SDS011;39160;48.580;7.756;2022-12-29T04:18:42;1.35;;;1.08;;
53271;SDS011;39160;48.580;7.756;2022-12-29T04:23:34;1.80;;;0.80;;
53271;SDS011;39160;48.580;7.756;2022-12-29T04:28:27;0.93;;;0.70;;
53271;SDS011;39160;48.580;7.756;2022-12-29T04:33:18;1.15;;;0.68;;
53271;SDS011;39160;48.580;7.756;2022-12-29T04:38:10;2.15;;;0.77;;
53271;SDS011;39160;48.580;7.756;2022-12-29T04:43:00;2.13;;;0.75;;
53271;SDS011;39160;48.580;7.756;2022-12-29T04:47:51;1.48;;;0.95;;
53271;SDS011;39160;48.580;7.756;2022-12-29T04:52:42;1.50;;;1.40;;
53271;SDS011;39160;48.580;7.756;2022-12-29T04:57:32;3.10;;;0.90;;
53271;SDS011;39160;48.580;7.756;2022-12-29T05:02:23;1.08;;;0.90;;
53271;SDS011;39160;48.580;7.756;2022-12-29T05:07:14;1.58;;;0.77;;
53271;SDS011;39160;48.580;7.756;2022-12-29T05:12:05;2.20;;;0.93;;
53271;SDS011;39160;48.580;7.756;2022-12-29T05:16:56;3.08;;;0.93;;
53271;SDS011;39160;48.580;7.756;2022-12-29T05:21:47;3.42;;;1.10;;
53271;SDS011;39160;48.580;7.756;2022-12-29T05:26:37;2.17;;;0.85;;
53271;SDS011;39160;48.580;7.756;2022-12-29T05:31:28;2.28;;;1.45;;
53271;SDS011;39160;48.580;7.756;2022-12-29T05:36:19;2.25;;;0.90;;
53271;SDS011;39160;48.580;7.756;2022-12-29T05:41:09;2.08;;;1.30;;
53271;SDS011;39160;48.580;7.756;2022-12-29T05:46:00;2.67;;;1.25;;
53271;SDS011;39160;48.580;7.756;2022-12-29T05:50:52;2.22;;;1.00;;
53271;SDS011;39160;48.580;7.756;2022-12-29T05:55:44;3.25;;;1.20;;
53271;SDS011;39160;48.580;7.756;2022-12-29T06:00:36;1.15;;;0.90;;
53271;SDS011;39160;48.580;7.756;2022-12-29T06:05:27;0.93;;;0.70;;
53271;SDS011;39160;48.580;7.756;2022-12-29T06:10:17;3.28;;;2.08;;
53271;SDS011;39160;48.580;7.756;2022-12-29T06:15:08;2.30;;;0.90;;
53271;SDS011;39160;48.580;7.756;2022-12-29T06:19:59;1.98;;;1.13;;
53271;SDS011;39160;48.580;7.756;2022-12-29T06:24:50;1.50;;;1.10;;
53271;SDS011;39160;48.580;7.756;2022-12-29T06:29:40;1.90;;;0.88;;
53271;SDS011;39160;48.580;7.756;2022-12-29T06:34:32;2.38;;;1.00;;
53271;SDS011;39160;48.580;7.756;2022-12-29T06:39:23;1.85;;;1.30;;
53271;SDS011;39160;48.580;7.756;2022-12-29T06:44:13;1.40;;;1.13;;
53271;SDS011;39160;48.580;7.756;2022-12-29T06:49:04;2.50;;;1.10;;
53271;SDS011;39160;48.580;7.756;2022-12-29T06:53:55;3.50;;;1.13;;
53271;SDS011;39160;48.580;7.756;2022-12-29T06:58:45;2.53;;;1.55;;
53271;SDS011;39160;48.580;7.756;2022-12-29T07:03:36;2.00;;;1.20;;
53271;SDS011;39160;48.580;7.756;2022-12-29T07:08:27;1.73;;;1.10;;
53271;SDS011;39160;48.580;7.756;2022-12-29T07:13:17;1.88;;;1.00;;
53271;SDS011;39160;48.580;7.756;2022-12-29T07:18:08;1.60;;;1.00;;
53271;SDS011;39160;48.580;7.756;2022-12-29T07:22:59;1.23;;;1.00;;
53271;SDS011;39160;48.580;7.756;2022-12-29T07:27:49;3.13;;;1.30;;
53271;SDS011;39160;48.580;7.756;2022-12-29T07:32:40;2.83;;;1.15;;
53271;SDS011;39160;48.580;7.756;2022-12-29T07:37:31;1.55;;;0.98;;
53271;SDS011;39160;48.580;7.756;2022-12-29T07:42:22;4.40;;;1.58;;
53271;SDS011;39160;48.580;7.756;2022-12-29T07:47:12;1.92;;;1.15;;
53271;SDS011;39160;48.580;7.756;2022-12-29T07:52:03;5.38;;;1.55;;
53271;SDS011;39160;48.580;7.756;2022-12-29T07:56:54;2.55;;;1.60;;
53271;SDS011;39160;48.580;7.756;2022-12-29T08:01:44;1.95;;;0.95;;
53271;SDS011;39160;48.580;7.756;2022-12-29T08:06:35;1.88;;;1.02;;
53271;SDS011;39160;48.580;7.756;2022-12-29T08:11:27;4.38;;;1.45;;
53271;SDS011;39160;48.580;7.756;2022-12-29T08:16:18;3.03;;;1.42;;
53271;SDS011;39160;48.580;7.756;2022-12-29T08:21:09;3.38;;;1.23;;
53271;SDS011;39160;48.580;7.756;2022-12-29T08:26:00;3.50;;;1.40;;
53271;SDS011;39160;48.580;7.756;2022-12-29T08:30:52;2.03;;;1.48;;
53271;SDS011;39160;48.580;7.756;2022-12-29T08:35:43;4.97;;;1.23;;
53271;SDS011;39160;48.580;7.756;2022-12-29T08:40:34;2.28;;;1.33;;
53271;SDS011;39160;48.580;7.756;2022-12-29T08:45:25;1.85;;;0.93;;
53271;SDS011;39160;48.580;7.756;2022-12-29T08:50:15;2.88;;;1.35;;
53271;SDS011;39160;48.580;7.756;2022-12-29T08:55:06;4.15;;;2.03;;
53271;SDS011;39160;48.580;7.756;2022-12-29T08:59:57;2.08;;;1.15;;
53271;SDS011;39160;48.580;7.756;2022-12-29T09:04:47;1.85;;;1.00;;
53271;SDS011;39160;48.580;7.756;2022-12-29T09:09:38;1.48;;;1.27;;
53271;SDS011;39160;48.580;7.756;2022-12-29T09:14:29;2.55;;;1.17;;
53271;SDS011;39160;48.580;7.756;2022-12-29T09:19:19;4.38;;;1.20;;
53271;SDS011;39160;48.580;7.756;2022-12-29T09:24:10;1.83;;;1.42;;
53271;SDS011;39160;48.580;7.756;2022-12-29T09:29:00;5.15;;;1.20;;
53271;SDS011;39160;48.580;7.756;2022-12-29T09:33:51;1.20;;;1.10;;
53271;SDS011;39160;48.580;7.756;2022-12-29T09:38:41;1.23;;;0.88;;
53271;SDS011;39160;48.580;7.756;2022-12-29T09:54:16;4.85;;;1.33;;
53271;SDS011;39160;48.580;7.756;2022-12-29T09:59:20;4.53;;;1.25;;
53271;SDS011;39160;48.580;7.756;2022-12-29T10:04:16;1.40;;;1.00;;
53271;SDS011;39160;48.580;7.756;2022-12-29T10:14:28;6.97;;;2.25;;
53271;SDS011;39160;48.580;7.756;2022-12-29T10:24:42;4.80;;;1.65;;
53271;SDS011;39160;48.580;7.756;2022-12-29T10:29:36;1.83;;;1.08;;
53271;SDS011;39160;48.580;7.756;2022-12-29T10:34:34;1.77;;;1.10;;
53271;SDS011;39160;48.580;7.756;2022-12-29T10:44:29;2.95;;;0.88;;
53271;SDS011;39160;48.580;7.756;2022-12-29T10:49:21;2.05;;;0.70;;
53271;SDS011;39160;48.580;7.756;2022-12-29T10:54:18;1.10;;;1.00;;
53271;SDS011;39160;48.580;7.756;2022-12-29T10:59:20;0.73;;;0.40;;
53271;SDS011;39160;48.580;7.756;2022-12-29T11:09:24;1.40;;;0.90;;
53271;SDS011;39160;48.580;7.756;2022-12-29T11:14:19;2.90;;;0.90;;
53271;SDS011;39160;48.580;7.756;2022-12-29T11:24:36;1.80;;;0.73;;
53271;SDS011;39160;48.580;7.756;2022-12-29T11:29:39;2.80;;;1.30;;
53271;SDS011;39160;48.580;7.756;2022-12-29T11:34:32;2.28;;;1.15;;
53271;SDS011;39160;48.580;7.756;2022-12-29T11:44:23;1.75;;;0.90;;
53271;SDS011;39160;48.580;7.756;2022-12-29T11:49:19;3.90;;;1.60;;
53271;SDS011;39160;48.580;7.756;2022-12-29T11:54:17;2.15;;;1.40;;
53271;SDS011;39160;48.580;7.756;2022-12-29T12:04:21;3.95;;;1.02;;
53271;SDS011;39160;48.580;7.756;2022-12-29T12:24:47;2.53;;;1.13;;
53271;SDS011;39160;48.580;7.756;2022-12-29T12:34:45;2.22;;;1.48;;
53271;SDS011;39160;48.580;7.756;2022-12-29T12:39:47;3.55;;;1.55;;
53271;SDS011;39160;48.580;7.756;2022-12-29T12:44:50;1.67;;;1.05;;
53271;SDS011;39160;48.580;7.756;2022-12-29T13:00:12;1.52;;;1.02;;
53271;SDS011;39160;48.580;7.756;2022-12-29T13:10:41;1.30;;;1.00;;
53271;SDS011;39160;48.580;7.756;2022-12-29T13:25:48;2.83;;;1.67;;
53271;SDS011;39160;48.580;7.756;2022-12-29T13:40:52;3.22;;;1.33;;
53271;SDS011;39160;48.580;7.756;2022-12-29T13:45:46;3.28;;;1.35;;
53271;SDS011;39160;48.580;7.756;2022-12-29T13:50:54;2.88;;;1.27;;
53271;SDS011;39160;48.580;7.756;2022-12-29T14:11:09;4.20;;;2.38;;
53271;SDS011;39160;48.580;7.756;2022-12-29T14:16:01;5.03;;;2.33;;
53271;SDS011;39160;48.580;7.756;2022-12-29T14:20:55;3.35;;;1.23;;
53271;SDS011;39160;48.580;7.756;2022-12-29T14:30:58;1.13;;;1.00;;
53271;SDS011;39160;48.580;7.756;2022-12-29T14:35:51;1.55;;;1.00;;
53271;SDS011;39160;48.580;7.756;2022-12-29T14:40:43;1.63;;;0.90;;
53271;SDS011;39160;48.580;7.756;2022-12-29T14:45:34;1.45;;;0.82;;
53271;SDS011;39160;48.580;7.756;2022-12-29T14:55:42;3.88;;;1.40;;
53271;SDS011;39160;48.580;7.756;2022-12-29T15:00:39;2.25;;;1.55;;
53271;SDS011;39160;48.580;7.756;2022-12-29T15:10:25;1.42;;;0.95;;
53271;SDS011;39160;48.580;7.756;2022-12-29T15:15:24;2.83;;;0.68;;
53271;SDS011;39160;48.580;7.756;2022-12-29T15:30:12;1.35;;;0.70;;
53271;SDS011;39160;48.580;7.756;2022-12-29T15:35:09;2.17;;;0.85;;
53271;SDS011;39160;48.580;7.756;2022-12-29T15:40:29;1.08;;;0.57;;
53271;SDS011;39160;48.580;7.756;2022-12-29T15:45:23;1.95;;;1.00;;
53271;SDS011;39160;48.580;7.756;2022-12-29T15:50:22;1.70;;;1.00;;
53271;SDS011;39160;48.580;7.756;2022-12-29T16:00:25;3.65;;;1.00;;
53271;SDS011;39160;48.580;7.756;2022-12-29T16:05:20;1.88;;;1.02;;
53271;SDS011;39160;48.580;7.756;2022-12-29T16:15:32;2.58;;;1.05;;
53271;SDS011;39160;48.580;7.756;2022-12-29T16:20:35;1.25;;;0.88;;
53271;SDS011;39160;48.580;7.756;2022-12-29T16:25:34;3.17;;;1.10;;
53271;SDS011;39160;48.580;7.756;2022-12-29T16:30:28;3.90;;;1.40;;
53271;SDS011;39160;48.580;7.756;2022-12-29T16:40:52;2.95;;;0.85;;
53271;SDS011;39160;48.580;7.756;2022-12-29T16:50:37;3.10;;;1.20;;
53271;SDS011;39160;48.580;7.756;2022-12-29T16:55:29;2.35;;;1.33;;
53271;SDS011;39160;48.580;7.756;2022-12-29T17:00:20;1.80;;;0.80;;
53271;SDS011;39160;48.580;7.756;2022-12-29T17:05:16;4.30;;;1.13;;
53271;SDS011;39160;48.580;7.756;2022-12-29T17:10:08;1.25;;;0.90;;
53271;SDS011;39160;48.580;7.756;2022-12-29T17:19:52;2.33;;;0.90;;
53271;SDS011;39160;48.580;7.756;2022-12-29T17:24:45;1.52;;;0.70;;
53271;SDS011;39160;48.580;7.756;2022-12-29T17:29:37;0.98;;;0.60;;
53271;SDS011;39160;48.580;7.756;2022-12-29T17:34:29;3.30;;;1.08;;
53271;SDS011;39160;48.580;7.756;2022-12-29T17:39:21;2.38;;;1.17;;
53271;SDS011;39160;48.580;7.756;2022-12-29T17:44:15;1.20;;;0.77;;
53271;SDS011;39160;48.580;7.756;2022-12-29T17:49:15;1.65;;;0.80;;
53271;SDS011;39160;48.580;7.756;2022-12-29T17:54:11;1.85;;;1.17;;
53271;SDS011;39160;48.580;7.756;2022-12-29T17:59:10;2.70;;;1.30;;
53271;SDS011;39160;48.580;7.756;2022-12-29T18:04:03;2.38;;;1.08;;
53271;SDS011;39160;48.580;7.756;2022-12-29T18:08:53;2.28;;;1.10;;
53271;SDS011;39160;48.580;7.756;2022-12-29T18:13:44;1.25;;;0.80;;
53271;SDS011;39160;48.580;7.756;2022-12-29T18:18:34;3.55;;;0.90;;
53271;SDS011;39160;48.580;7.756;2022-12-29T18:23:29;0.82;;;0.77;;
53271;SDS011;39160;48.580;7.756;2022-12-29T18:28:21;2.05;;;1.27;;
53271;SDS011;39160;48.580;7.756;2022-12-29T18:33:15;3.50;;;1.38;;
53271;SDS011;39160;48.580;7.756;2022-12-29T18:38:06;2.45;;;1.15;;
53271;SDS011;39160;48.580;7.756;2022-12-29T18:42:57;1.77;;;1.20;;
53271;SDS011;39160;48.580;7.756;2022-12-29T18:47:48;1.98;;;1.42;;
53271;SDS011;39160;48.580;7.756;2022-12-29T18:52:38;2.13;;;0.98;;
53271;SDS011;39160;48.580;7.756;2022-12-29T18:57:29;3.97;;;1.60;;
53271;SDS011;39160;48.580;7.756;2022-12-29T19:02:22;3.28;;;1.55;;
53271;SDS011;39160;48.580;7.756;2022-12-29T19:07:14;3.22;;;1.20;;
53271;SDS011;39160;48.580;7.756;2022-12-29T19:12:05;1.23;;;1.05;;
53271;SDS011;39160;48.580;7.756;2022-12-29T19:16:55;2.15;;;1.15;;
53271;SDS011;39160;48.580;7.756;2022-12-29T19:21:46;3.97;;;1.08;;
53271;SDS011;39160;48.580;7.756;2022-12-29T19:26:38;0.93;;;0.70;;
53271;SDS011;39160;48.580;7.756;2022-12-29T19:31:29;1.75;;;1.38;;
53271;SDS011;39160;48.580;7.756;2022-12-29T19:36:20;1.92;;;0.80;;
53271;SDS011;39160;48.580;7.756;2022-12-29T19:41:11;2.47;;;0.88;;
53271;SDS011;39160;48.580;7.756;2022-12-29T19:46:09;1.73;;;0.82;;
53271;SDS011;39160;48.580;7.756;2022-12-29T19:51:06;2.70;;;0.95;;
53271;SDS011;39160;48.580;7.756;2022-12-29T19:56:00;1.25;;;0.90;;
53271;SDS011;39160;48.580;7.756;2022-12-29T20:00:52;1.63;;;0.77;;
53271;SDS011;39160;48.580;7.756;2022-12-29T20:05:46;1.30;;;0.63;;
53271;SDS011;39160;48.580;7.756;2022-12-29T20:10:38;4.25;;;0.82;;
53271;SDS011;39160;48.580;7.756;2022-12-29T20:15:28;3.47;;;1.40;;
53271;SDS011;39160;48.580;7.756;2022-12-29T20:20:19;2.85;;;1.23;;
53271;SDS011;39160;48.580;7.756;2022-12-29T20:25:10;2.35;;;1.40;;
53271;SDS011;39160;48.580;7.756;2022-12-29T20:30:00;4.88;;;1.40;;
53271;SDS011;39160;48.580;7.756;2022-12-29T20:34:51;2.30;;;1.70;;
53271;SDS011;39160;48.580;7.756;2022-12-29T20:39:43;2.63;;;1.73;;
53271;SDS011;39160;48.580;7.756;2022-12-29T20:44:34;3.83;;;1.08;;
53271;SDS011;39160;48.580;7.756;2022-12-29T20:49:25;3.33;;;0.77;;
53271;SDS011;39160;48.580;7.756;2022-12-29T20:54:17;3.25;;;1.55;;
53271;SDS011;39160;48.580;7.756;2022-12-29T20:59:08;2.17;;;1.27;;
53271;SDS011;39160;48.580;7.756;2022-12-29T21:03:59;1.77;;;0.88;;
53271;SDS011;39160;48.580;7.756;2022-12-29T21:08:50;2.10;;;1.00;;
53271;SDS011;39160;48.580;7.756;2022-12-29T21:13:42;2.63;;;1.42;;
53271;SDS011;39160;48.580;7.756;2022-12-29T21:18:33;1.35;;;0.80;;
53271;SDS011;39160;48.580;7.756;2022-12-29T21:23:25;1.17;;;0.55;;
53271;SDS011;39160;48.580;7.756;2022-12-29T21:28:16;1.35;;;0.52;;
53271;SDS011;39160;48.580;7.756;2022-12-29T21:33:07;2.13;;;0.70;;
53271;SDS011;39160;48.580;7.756;2022-12-29T21:37:58;0.93;;;0.55;;
53271;SDS011;39160;48.580;7.756;2022-12-29T21:42:48;2.58;;;0.90;;
53271;SDS011;39160;48.580;7.756;2022-12-29T21:47:39;68.22;;;35.42;;
53271;SDS011;39160;48.580;7.756;2022-12-29T21:52:48;55.00;;;27.42;;
53271;SDS011;39160;48.580;7.756;2022-12-29T21:57:39;22.80;;;12.98;;
53271;SDS011;39160;48.580;7.756;2022-12-29T22:02:48;10.93;;;4.53;;
53271;SDS011;39160;48.580;7.756;2022-12-29T22:07:57;3.67;;;1.73;;
53271;SDS011;39160;48.580;7.756;2022-12-29T22:13:07;2.60;;;1.17;;
53271;SDS011;39160;48.580;7.756;2022-12-29T22:17:58;2.70;;;1.48;;
53271;SDS011;39160;48.580;7.756;2022-12-29T22:22:49;4.47;;;1.02;;
53271;SDS011;39160;48.580;7.756;2022-12-29T22:27:40;1.92;;;1.10;;
53271;SDS011;39160;48.580;7.756;2022-12-29T22:32:31;1.45;;;0.57;;
53271;SDS011;39160;48.580;7.756;2022-12-29T22:37:23;1.23;;;0.73;;
53271;SDS011;39160;48.580;7.756;2022-12-29T22:42:13;0.85;;;0.52;;
53271;SDS011;39160;48.580;7.756;2022-12-29T22:47:04;1.15;;;0.50;;
53271;SDS011;39160;48.580;7.756;2022-12-29T22:51:55;1.65;;;0.60;;
53271;SDS011;39160;48.580;7.756;2022-12-29T22:56:45;1.58;;;0.65;;
53271;SDS011;39160;48.580;7.756;2022-12-29T23:01:36;2.17;;;0.90;;
53271;SDS011;39160;48.580;7.756;2022-12-29T23:06:27;1.70;;;0.85;;
53271;SDS011;39160;48.580;7.756;2022-12-29T23:11:18;1.50;;;0.90;;
53271;SDS011;39160;48.580;7.756;2022-12-29T23:16:09;3.58;;;1.40;;
53271;SDS011;39160;48.580;7.756;2022-12-29T23:21:00;2.42;;;1.30;;
53271;SDS011;39160;48.580;7.756;2022-12-29T23:25:50;2.38;;;1.38;;
53271;SDS011;39160;48.580;7.756;2022-12-29T23:30:41;5.07;;;1.60;;
53271;SDS011;39160;48.580;7.756;2022-12-29T23:35:32;2.97;;;0.98;;
53271;SDS011;39160;48.580;7.756;2022-12-29T23:40:25;1.77;;;1.17;;
53271;SDS011;39160;48.580;7.756;2022-12-29T23:45:16;3.20;;;1.50;;
53271;SDS011;39160;48.580;7.756;2022-12-29T23:50:07;2.65;;;1.60;;
53271;SDS011;39160;48.580;7.756;2022-12-29T23:54:58;2.55;;;1.20;;
53271;SDS011;39160;48.580;7.756;2022-12-29T23:59:48;1.00;;;0.90;;
